createdAt,value
2022-08-02T00:01:45.391Z,4.00
2022-08-02T00:04:32.968Z,3.83
2022-08-02T00:07:21.927Z,4.28
2022-08-02T00:10:11.649Z,3.95
2022-08-02T00:12:59.333Z,3.38
2022-08-02T00:15:47.903Z,3.53
2022-08-02T00:18:35.561Z,3.80
2022-08-02T00:21:22.902Z,3.83
2022-08-02T00:24:28.677Z,4.25
2022-08-02T00:27:16.853Z,4.43
2022-08-02T00:30:04.296Z,3.92
2022-08-02T00:32:52.803Z,3.80
2022-08-02T00:35:40.795Z,4.32
2022-08-02T00:38:28.275Z,4.05
2022-08-02T00:41:18.453Z,3.90
2022-08-02T00:44:06.182Z,3.72
2022-08-02T00:46:53.804Z,3.70
2022-08-02T00:49:42.280Z,3.67
2022-08-02T00:52:29.647Z,3.58
2022-08-02T00:55:17.488Z,3.65
2022-08-02T00:58:10.928Z,3.90
2022-08-02T01:01:00.915Z,3.70
2022-08-02T01:03:49.190Z,3.90
2022-08-02T01:06:38.532Z,4.30
2022-08-02T01:09:25.921Z,4.45
2022-08-02T01:12:14.501Z,3.97
2022-08-02T01:15:07.154Z,3.95
2022-08-02T01:18:03.580Z,4.40
2022-08-02T01:21:18.577Z,4.20
2022-08-02T01:24:42.380Z,3.88
2022-08-02T01:27:41.735Z,3.70
2022-08-02T01:30:34.086Z,4.28
2022-08-02T01:33:22.511Z,3.58
2022-08-02T01:36:14.610Z,4.22
2022-08-02T01:39:05.438Z,3.88
2022-08-02T01:41:58.081Z,3.67
2022-08-02T01:44:48.278Z,4.25
2022-08-02T01:47:41.253Z,3.90
2022-08-02T01:50:33.559Z,4.20
2022-08-02T01:53:25.329Z,4.15
2022-08-02T01:56:14.219Z,4.30
2022-08-02T01:59:02.467Z,4.70
2022-08-02T02:01:52.697Z,4.43
2022-08-02T02:04:42.389Z,3.90
2022-08-02T02:07:31.891Z,4.05
2022-08-02T02:10:27.585Z,4.45
2022-08-02T02:13:18.796Z,4.70
2022-08-02T02:16:07.480Z,4.40
2022-08-02T02:18:55.701Z,4.20
2022-08-02T02:21:44.630Z,4.80
2022-08-02T02:24:32.605Z,4.40
2022-08-02T02:27:24.873Z,4.80
2022-08-02T02:30:13.422Z,4.38
2022-08-02T02:33:04.583Z,4.20
2022-08-02T02:35:54.623Z,4.13
2022-08-02T02:38:44.737Z,3.60
2022-08-02T02:41:32.379Z,3.95
2022-08-02T02:44:22.021Z,4.15
2022-08-02T02:47:11.632Z,4.10
2022-08-02T02:49:59.400Z,4.18
2022-08-02T02:52:48.199Z,4.20
2022-08-02T02:55:37.510Z,4.50
2022-08-02T02:58:28.678Z,4.70
2022-08-02T03:01:55.160Z,4.35
2022-08-02T03:04:56.768Z,3.80
2022-08-02T03:07:45.462Z,4.05
2022-08-02T03:10:33.165Z,4.18
2022-08-02T03:13:22.462Z,4.15
2022-08-02T03:16:09.878Z,4.00
2022-08-02T03:18:58.951Z,4.43
2022-08-02T03:21:48.428Z,4.30
2022-08-02T03:24:45.139Z,4.28
2022-08-02T03:27:32.360Z,4.13
2022-08-02T03:30:24.676Z,4.75
2022-08-02T03:33:12.136Z,4.53
2022-08-02T03:36:03.908Z,4.68
2022-08-02T03:38:54.272Z,4.15
2022-08-02T03:41:43.236Z,4.40
2022-08-02T03:44:31.740Z,4.25
2022-08-02T03:47:21.316Z,5.15
2022-08-02T03:50:12.905Z,4.22
2022-08-02T03:53:00.739Z,4.18
2022-08-02T03:55:48.797Z,3.92
2022-08-02T03:58:36.346Z,4.07
2022-08-02T04:01:23.854Z,4.60
2022-08-02T04:04:12.377Z,3.67
2022-08-02T04:06:59.673Z,4.05
2022-08-02T04:09:47.224Z,3.90
2022-08-02T04:12:34.631Z,4.15
2022-08-02T04:15:22.202Z,4.85
2022-08-02T04:18:09.584Z,4.07
2022-08-02T04:21:00.919Z,4.63
2022-08-02T04:23:50.074Z,4.35
2022-08-02T04:26:40.495Z,4.78
2022-08-02T04:29:32.016Z,4.55
2022-08-02T04:32:19.810Z,4.78
2022-08-02T04:35:23.744Z,4.88
2022-08-02T04:38:15.832Z,4.68
2022-08-02T04:41:03.344Z,4.40
2022-08-02T04:43:50.869Z,4.80
2022-08-02T04:46:38.354Z,4.47
2022-08-02T04:49:25.530Z,4.40
2022-08-02T04:52:13.201Z,4.20
2022-08-02T04:55:02.036Z,3.97
2022-08-02T04:57:58.774Z,4.35
2022-08-02T05:00:46.163Z,4.22
2022-08-02T05:03:33.526Z,4.25
2022-08-02T05:06:21.277Z,3.72
2022-08-02T05:09:08.715Z,4.03
2022-08-02T05:11:57.518Z,3.97
2022-08-02T05:14:45.745Z,3.90
2022-08-02T05:17:32.895Z,4.03
2022-08-02T05:20:20.905Z,4.22
2022-08-02T05:23:08.321Z,4.20
2022-08-02T05:25:55.562Z,4.03
2022-08-02T05:28:44.178Z,4.80
2022-08-02T05:31:31.581Z,4.47
2022-08-02T05:34:18.837Z,4.38
2022-08-02T05:37:09.691Z,4.80
2022-08-02T05:39:57.313Z,4.68
2022-08-02T05:42:45.672Z,4.43
2022-08-02T05:45:37.374Z,4.28
2022-08-02T05:48:30.843Z,4.20
2022-08-02T05:51:25.651Z,4.20
2022-08-02T05:54:20.337Z,4.35
2022-08-02T05:57:17.779Z,4.30
2022-08-02T06:00:10.530Z,4.38
2022-08-02T06:03:23.540Z,4.35
2022-08-02T06:06:15.190Z,4.55
2022-08-02T06:09:06.822Z,4.45
2022-08-02T06:12:01.502Z,4.50
2022-08-02T06:14:54.426Z,4.38
2022-08-02T06:17:45.532Z,4.13
2022-08-02T06:20:36.629Z,4.53
2022-08-02T06:23:24.938Z,3.80
2022-08-02T06:26:14.956Z,4.13
2022-08-02T06:29:02.766Z,4.10
2022-08-02T06:31:51.666Z,3.80
2022-08-02T06:34:39.450Z,4.03
2022-08-02T06:37:36.363Z,3.45
2022-08-02T06:40:47.411Z,3.70
2022-08-02T06:43:46.554Z,3.60
2022-08-02T06:47:10.315Z,3.30
2022-08-02T06:49:52.109Z,3.20
2022-08-02T06:52:43.028Z,3.05
2022-08-02T06:55:32.290Z,2.97
2022-08-02T06:58:30.913Z,3.13
2022-08-02T07:01:19.762Z,3.10
2022-08-02T07:04:07.133Z,3.42
2022-08-02T07:06:55.391Z,2.95
2022-08-02T07:10:00.399Z,3.38
2022-08-02T07:12:48.493Z,3.10
2022-08-02T07:15:35.988Z,3.10
2022-08-02T07:18:23.893Z,3.08
2022-08-02T07:21:11.136Z,3.13
2022-08-02T07:23:59.770Z,3.20
2022-08-02T07:27:10.043Z,3.25
2022-08-02T07:29:56.141Z,2.70
2022-08-02T07:32:43.461Z,2.50
2022-08-02T07:35:30.740Z,2.88
2022-08-02T07:38:22.985Z,2.28
2022-08-02T07:41:12.717Z,2.40
2022-08-02T07:44:01.337Z,2.20
2022-08-02T07:46:48.875Z,1.92
2022-08-02T07:49:36.429Z,1.73
2022-08-02T07:52:24.004Z,1.55
2022-08-02T07:55:13.055Z,1.95
2022-08-02T07:58:00.341Z,2.10
2022-08-02T08:00:49.420Z,1.83
2022-08-02T08:03:37.110Z,1.50
2022-08-02T08:06:28.899Z,1.75
2022-08-02T08:09:17.060Z,1.80
2022-08-02T08:12:04.916Z,1.92
2022-08-02T08:14:52.453Z,1.73
2022-08-02T08:17:41.562Z,1.90
2022-08-02T08:20:28.912Z,1.80
2022-08-02T08:23:16.025Z,1.70
2022-08-02T08:26:03.408Z,1.90
2022-08-02T08:28:50.752Z,1.80
2022-08-02T08:31:38.098Z,1.90
2022-08-02T08:34:30.757Z,1.98
2022-08-02T08:37:18.812Z,2.10
2022-08-02T08:40:06.829Z,1.92
2022-08-02T08:42:54.408Z,1.52
2022-08-02T08:45:42.127Z,1.80
2022-08-02T08:48:32.046Z,1.67
2022-08-02T08:51:23.665Z,1.60
2022-08-02T08:54:17.574Z,1.52
2022-08-02T08:57:07.418Z,1.65
2022-08-02T08:59:54.957Z,2.00
2022-08-02T09:02:43.610Z,1.65
2022-08-02T09:05:30.942Z,1.75
2022-08-02T09:08:20.017Z,1.70
2022-08-02T09:11:16.694Z,1.77
2022-08-02T09:14:05.892Z,1.55
2022-08-02T09:16:53.375Z,1.63
2022-08-02T09:19:45.927Z,1.70
2022-08-02T09:22:33.765Z,1.90
2022-08-02T09:25:22.729Z,1.70
2022-08-02T09:28:10.061Z,1.55
2022-08-02T09:31:06.839Z,1.77
2022-08-02T09:33:56.275Z,2.10
2022-08-02T09:36:45.896Z,2.00
2022-08-02T09:39:46.661Z,2.00
2022-08-02T09:42:36.904Z,1.67
2022-08-02T09:45:31.650Z,1.65
2022-08-02T09:48:18.872Z,1.77
2022-08-02T09:51:06.002Z,1.70
2022-08-02T09:54:08.064Z,1.60
2022-08-02T09:56:58.194Z,1.70
2022-08-02T09:59:54.617Z,1.80
2022-08-02T10:03:14.266Z,1.77
2022-08-02T10:06:08.877Z,1.60
2022-08-02T10:08:56.572Z,1.80
2022-08-02T10:11:43.844Z,1.50
2022-08-02T10:14:31.593Z,1.90
2022-08-02T10:17:21.496Z,1.83
2022-08-02T10:20:10.712Z,1.90
2022-08-02T10:23:00.442Z,1.80
2022-08-02T10:25:49.867Z,1.90
2022-08-02T10:28:38.583Z,1.85
2022-08-02T10:31:29.967Z,1.80
2022-08-02T10:34:23.145Z,1.60
2022-08-02T10:37:11.354Z,1.85
2022-08-02T10:40:02.372Z,1.65
2022-08-02T10:42:51.616Z,1.80
2022-08-02T10:45:39.588Z,1.83
2022-08-02T10:48:27.038Z,1.80
2022-08-02T10:51:15.605Z,1.60
2022-08-02T10:54:10.500Z,1.90
2022-08-02T10:57:01.230Z,1.98
2022-08-02T10:59:50.333Z,1.55
2022-08-02T11:02:41.923Z,1.80
2022-08-02T11:05:42.535Z,1.90
2022-08-02T11:08:33.533Z,1.77
2022-08-02T11:11:53.491Z,1.80
2022-08-02T11:14:28.774Z,1.98
2022-08-02T11:17:18.197Z,1.80
2022-08-02T11:20:22.395Z,2.00
2022-08-02T11:23:45.130Z,1.90
2022-08-02T11:26:48.519Z,1.67
2022-08-02T11:29:39.455Z,1.77
2022-08-02T11:32:30.561Z,1.83
2022-08-02T11:35:19.061Z,1.98
2022-08-02T11:38:18.709Z,1.80
2022-08-02T11:41:09.953Z,1.60
2022-08-02T11:43:58.199Z,1.80
2022-08-02T11:46:45.673Z,2.05
2022-08-02T11:49:33.390Z,1.80
2022-08-02T11:52:20.882Z,1.77
2022-08-02T11:55:10.439Z,1.70
2022-08-02T11:58:04.678Z,1.80
2022-08-02T12:00:54.757Z,1.75
2022-08-02T12:03:42.026Z,1.70
2022-08-02T12:06:30.534Z,1.90
2022-08-02T12:09:18.970Z,1.80
2022-08-02T12:12:07.520Z,1.58
2022-08-02T12:14:59.550Z,1.60
2022-08-02T12:18:06.655Z,1.65
2022-08-02T12:20:54.195Z,1.50
2022-08-02T12:24:00.066Z,1.67
2022-08-02T12:26:49.466Z,1.70
2022-08-02T12:29:58.446Z,1.80
2022-08-02T12:32:47.366Z,1.55
2022-08-02T12:35:34.424Z,1.70
2022-08-02T12:38:21.933Z,1.40
2022-08-02T12:41:31.806Z,1.52
2022-08-02T12:44:19.982Z,1.60
2022-08-02T12:47:09.629Z,1.30
2022-08-02T12:50:20.805Z,1.65
2022-08-02T12:53:10.389Z,1.90
2022-08-02T12:56:03.340Z,1.63
2022-08-02T12:58:52.747Z,1.73
2022-08-02T13:01:40.534Z,2.00
2022-08-02T13:04:30.426Z,1.65
2022-08-02T13:07:19.761Z,1.90
2022-08-02T13:10:08.440Z,1.80
2022-08-02T13:12:55.892Z,1.90
2022-08-02T13:15:48.933Z,1.80
2022-08-02T13:18:38.552Z,1.70
2022-08-02T13:21:41.693Z,1.67
2022-08-02T13:24:40.570Z,1.60
2022-08-02T13:27:42.492Z,1.65
2022-08-02T13:30:29.702Z,1.40
2022-08-02T13:33:18.325Z,2.20
2022-08-02T13:36:09.036Z,1.35
2022-08-02T13:38:56.724Z,1.80
2022-08-02T13:41:45.288Z,1.73
2022-08-02T13:44:32.801Z,1.80
2022-08-02T13:47:35.953Z,1.77
2022-08-02T13:50:23.989Z,1.70
2022-08-02T13:53:12.758Z,1.60
2022-08-02T13:56:00.560Z,1.65
2022-08-02T13:58:49.382Z,1.90
2022-08-02T14:01:36.524Z,1.92
2022-08-02T14:04:24.278Z,1.85
2022-08-02T14:07:11.497Z,2.03
2022-08-02T14:09:59.011Z,1.70
2022-08-02T14:12:46.246Z,1.70
2022-08-02T14:15:45.993Z,1.70
2022-08-02T14:18:33.447Z,1.90
2022-08-02T14:21:20.664Z,1.60
2022-08-02T14:24:08.340Z,1.85
2022-08-02T14:26:56.079Z,1.58
2022-08-02T14:29:43.503Z,1.70
2022-08-02T14:32:32.807Z,1.60
2022-08-02T14:35:20.154Z,1.80
2022-08-02T14:38:07.736Z,1.70
2022-08-02T14:40:54.876Z,1.52
2022-08-02T14:43:59.637Z,1.90
2022-08-02T14:46:46.930Z,1.70
2022-08-02T14:49:38.321Z,1.70
2022-08-02T14:52:28.855Z,1.40
2022-08-02T14:55:17.420Z,1.63
2022-08-02T14:58:04.576Z,1.73
2022-08-02T15:00:52.150Z,1.60
2022-08-02T15:03:43.201Z,1.70
2022-08-02T15:06:33.214Z,1.77
2022-08-02T15:09:21.357Z,1.80
2022-08-02T15:12:10.121Z,1.90
2022-08-02T15:14:57.888Z,1.40
2022-08-02T15:17:45.355Z,1.75
2022-08-02T15:20:34.073Z,1.95
2022-08-02T15:23:37.212Z,1.65
2022-08-02T15:26:25.423Z,1.92
2022-08-02T15:29:13.066Z,1.70
2022-08-02T15:32:00.306Z,1.30
2022-08-02T15:34:47.754Z,1.67
2022-08-02T15:37:40.931Z,1.67
2022-08-02T15:40:30.701Z,1.63
2022-08-02T15:43:17.757Z,1.83
2022-08-02T15:46:06.573Z,1.55
2022-08-02T15:48:53.792Z,1.48
2022-08-02T15:51:40.822Z,1.73
2022-08-02T15:54:28.105Z,1.58
2022-08-02T15:57:16.903Z,1.70
2022-08-02T16:00:04.626Z,1.70
2022-08-02T16:02:51.983Z,2.03
2022-08-02T16:05:39.260Z,1.65
2022-08-02T16:08:26.730Z,1.70
2022-08-02T16:11:13.730Z,1.38
2022-08-02T16:14:02.337Z,1.60
2022-08-02T16:16:49.621Z,1.40
2022-08-02T16:19:49.061Z,1.70
2022-08-02T16:22:38.299Z,1.52
2022-08-02T16:25:25.922Z,1.80
2022-08-02T16:28:13.311Z,1.52
2022-08-02T16:31:10.984Z,1.60
2022-08-02T16:33:59.317Z,1.58
2022-08-02T16:36:46.916Z,1.40
2022-08-02T16:39:34.310Z,1.70
2022-08-02T16:42:24.957Z,1.80
2022-08-02T16:45:14.074Z,1.80
2022-08-02T16:48:05.524Z,1.80
2022-08-02T16:50:53.566Z,1.40
2022-08-02T16:53:59.458Z,2.00
2022-08-02T16:56:48.344Z,1.65
2022-08-02T16:59:41.938Z,1.85
2022-08-02T17:02:30.289Z,1.50
2022-08-02T17:05:18.948Z,1.65
2022-08-02T17:08:17.166Z,1.40
2022-08-02T17:11:05.245Z,1.48
2022-08-02T17:13:52.884Z,1.85
2022-08-02T17:16:40.474Z,1.80
2022-08-02T17:19:27.537Z,1.45
2022-08-02T17:22:16.458Z,1.35
2022-08-02T17:25:05.944Z,1.70
2022-08-02T17:27:58.249Z,1.60
2022-08-02T17:30:45.635Z,1.55
2022-08-02T17:33:32.730Z,2.33
2022-08-02T17:36:20.881Z,1.63
2022-08-02T17:39:10.092Z,1.65
2022-08-02T17:41:57.784Z,1.60
2022-08-02T17:44:45.445Z,1.70
2022-08-02T17:47:42.330Z,1.50
2022-08-02T17:50:30.373Z,1.80
2022-08-02T17:53:18.878Z,1.65
2022-08-02T17:56:07.599Z,1.60
2022-08-02T17:58:54.752Z,1.70
2022-08-02T18:01:53.263Z,1.75
2022-08-02T18:04:41.463Z,1.70
2022-08-02T18:07:40.631Z,1.60
2022-08-02T18:10:36.238Z,1.58
2022-08-02T18:13:25.575Z,1.67
2022-08-02T18:16:20.871Z,1.58
2022-08-02T18:19:16.616Z,1.70
2022-08-02T18:22:04.773Z,1.70
2022-08-02T18:24:52.863Z,1.90
2022-08-02T18:27:40.335Z,1.77
2022-08-02T18:30:34.016Z,1.60
2022-08-02T18:33:55.501Z,1.52
2022-08-02T18:36:28.886Z,1.80
2022-08-02T18:39:16.886Z,1.80
2022-08-02T18:42:04.107Z,1.60
2022-08-02T18:44:51.218Z,1.90
2022-08-02T18:47:40.853Z,1.63
2022-08-02T18:50:38.258Z,1.70
2022-08-02T18:53:39.286Z,1.52
2022-08-02T18:56:29.808Z,1.92
2022-08-02T18:59:20.271Z,1.50
2022-08-02T19:02:07.786Z,1.90
2022-08-02T19:04:56.290Z,1.92
2022-08-02T19:07:50.370Z,1.67
2022-08-02T19:10:46.886Z,1.80
2022-08-02T19:13:42.303Z,1.70
2022-08-02T19:16:37.042Z,2.03
2022-08-02T19:19:28.635Z,1.88
2022-08-02T19:22:20.129Z,2.00
2022-08-02T19:25:09.190Z,1.90
2022-08-02T19:28:01.641Z,1.77
2022-08-02T19:30:49.260Z,1.92
2022-08-02T19:34:06.353Z,1.73
2022-08-02T19:36:46.337Z,1.98
2022-08-02T19:39:39.314Z,2.00
2022-08-02T19:42:26.642Z,1.80
2022-08-02T19:45:14.017Z,2.30
2022-08-02T19:48:07.768Z,1.77
2022-08-02T19:51:00.866Z,1.85
2022-08-02T19:53:49.441Z,1.92
2022-08-02T19:56:40.076Z,1.88
2022-08-02T19:59:30.866Z,2.10
2022-08-02T20:02:21.134Z,2.05
2022-08-02T20:05:16.315Z,1.80
2022-08-02T20:08:11.417Z,1.88
2022-08-02T20:11:18.855Z,2.10
2022-08-02T20:14:08.392Z,2.10
2022-08-02T20:16:55.763Z,1.98
2022-08-02T20:19:46.248Z,2.00
2022-08-02T20:22:54.128Z,1.90
2022-08-02T20:25:45.362Z,1.92
2022-08-02T20:28:33.104Z,1.95
2022-08-02T20:31:21.795Z,2.17
2022-08-02T20:34:08.970Z,2.08
2022-08-02T20:36:56.291Z,2.10
2022-08-02T20:39:44.369Z,2.22
2022-08-02T20:42:31.459Z,2.13
2022-08-02T20:45:19.307Z,2.20
2022-08-02T20:48:08.353Z,2.03
2022-08-02T20:50:59.253Z,2.08
2022-08-02T20:53:56.090Z,1.77
2022-08-02T20:56:43.822Z,1.70
2022-08-02T20:59:39.782Z,1.58
2022-08-02T21:02:29.880Z,2.25
2022-08-02T21:05:18.996Z,2.40
2022-08-02T21:08:15.356Z,1.88
2022-08-02T21:11:09.057Z,1.90
2022-08-02T21:14:07.641Z,2.10
2022-08-02T21:17:08.629Z,2.15
2022-08-02T21:19:56.071Z,1.85
2022-08-02T21:22:47.213Z,2.08
2022-08-02T21:25:42.770Z,2.00
2022-08-02T21:28:43.548Z,2.20
2022-08-02T21:31:35.744Z,2.13
2022-08-02T21:34:27.164Z,2.08
2022-08-02T21:37:16.648Z,2.38
2022-08-02T21:40:05.973Z,2.50
2022-08-02T21:42:56.473Z,2.50
2022-08-02T21:45:53.772Z,2.33
2022-08-02T21:48:42.899Z,2.47
2022-08-02T21:51:34.277Z,3.00
2022-08-02T21:54:22.174Z,2.85
2022-08-02T21:57:15.578Z,2.50
2022-08-02T22:00:05.496Z,2.63
2022-08-02T22:02:56.205Z,2.40
2022-08-02T22:05:47.144Z,2.60
2022-08-02T22:08:34.623Z,2.92
2022-08-02T22:11:23.405Z,3.13
2022-08-02T22:14:12.266Z,2.60
2022-08-02T22:16:59.432Z,2.53
2022-08-02T22:19:54.103Z,2.40
2022-08-02T22:22:42.009Z,2.28
2022-08-02T22:25:37.329Z,2.30
2022-08-02T22:28:37.281Z,2.30
2022-08-02T22:31:41.619Z,2.17
2022-08-02T22:34:51.315Z,2.30
2022-08-02T22:38:17.335Z,2.15
2022-08-02T22:40:44.924Z,2.00
2022-08-02T22:43:32.314Z,2.47
2022-08-02T22:46:26.510Z,2.33
2022-08-02T22:49:37.044Z,2.70
2022-08-02T22:52:22.637Z,2.17
2022-08-02T22:55:11.803Z,3.13
2022-08-02T22:58:00.822Z,2.35
2022-08-02T23:00:48.240Z,2.70
2022-08-02T23:03:37.512Z,2.45
2022-08-02T23:06:26.217Z,2.80
2022-08-02T23:09:13.356Z,2.10
2022-08-02T23:12:00.757Z,2.55
2022-08-02T23:14:48.179Z,2.30
2022-08-02T23:17:53.166Z,2.80
2022-08-02T23:20:40.590Z,2.38
2022-08-02T23:23:29.170Z,2.40
2022-08-02T23:26:16.546Z,2.30
2022-08-02T23:29:04.066Z,2.42
2022-08-02T23:31:51.655Z,2.33
2022-08-02T23:34:40.568Z,2.25
2022-08-02T23:37:28.102Z,2.80
2022-08-02T23:40:40.407Z,2.80
2022-08-02T23:43:28.445Z,3.05
2022-08-02T23:46:15.901Z,3.15
2022-08-02T23:49:03.291Z,2.80
2022-08-02T23:51:52.115Z,2.72
2022-08-02T23:54:39.938Z,2.28
2022-08-02T23:57:28.783Z,2.97
